sensor_id;sensor_type;location;lat;lon;timestamp;P1;durP1;ratioP1;P2;durP2;ratioP2
74777;SDS011;63298;53.164;8.610;2023-07-31T00:00:59;7.95;;;1.70;;
74777;SDS011;63298;53.164;8.610;2023-07-31T00:03:25;4.25;;;1.30;;
74777;SDS011;63298;53.164;8.610;2023-07-31T00:05:50;4.25;;;1.10;;
74777;SDS011;63298;53.164;8.610;2023-07-31T00:08:16;6.38;;;1.40;;
74777;SDS011;63298;53.164;8.610;2023-07-31T00:10:41;2.33;;;1.27;;
74777;SDS011;63298;53.164;8.610;2023-07-31T00:13:06;3.47;;;1.55;;
74777;SDS011;63298;53.164;8.610;2023-07-31T00:15:32;7.93;;;1.70;;
74777;SDS011;63298;53.164;8.610;2023-07-31T00:17:57;4.15;;;1.30;;
74777;SDS011;63298;53.164;8.610;2023-07-31T00:20:23;4.18;;;1.70;;
74777;SDS011;63298;53.164;8.610;2023-07-31T00:22:48;4.28;;;1.42;;
74777;SDS011;63298;53.164;8.610;2023-07-31T00:25:13;5.25;;;1.30;;
74777;SDS011;63298;53.164;8.610;2023-07-31T00:27:39;3.85;;;1.25;;
74777;SDS011;63298;53.164;8.610;2023-07-31T00:30:04;2.45;;;1.08;;
74777;SDS011;63298;53.164;8.610;2023-07-31T00:32:30;3.92;;;1.60;;
74777;SDS011;63298;53.164;8.610;2023-07-31T00:34:55;2.55;;;1.35;;
74777;SDS011;63298;53.164;8.610;2023-07-31T00:37:20;5.25;;;1.63;;
74777;SDS011;63298;53.164;8.610;2023-07-31T00:39:46;1.10;;;1.10;;
74777;SDS011;63298;53.164;8.610;2023-07-31T00:42:11;2.85;;;1.50;;
74777;SDS011;63298;53.164;8.610;2023-07-31T00:44:36;3.45;;;1.27;;
74777;SDS011;63298;53.164;8.610;2023-07-31T00:47:02;3.03;;;1.10;;
74777;SDS011;63298;53.164;8.610;2023-07-31T00:49:27;1.92;;;1.20;;
74777;SDS011;63298;53.164;8.610;2023-07-31T00:51:53;2.05;;;1.05;;
74777;SDS011;63298;53.164;8.610;2023-07-31T00:54:19;3.42;;;1.10;;
74777;SDS011;63298;53.164;8.610;2023-07-31T00:56:47;2.72;;;0.90;;
74777;SDS011;63298;53.164;8.610;2023-07-31T00:59:12;2.10;;;1.05;;
74777;SDS011;63298;53.164;8.610;2023-07-31T01:01:38;3.97;;;1.42;;
74777;SDS011;63298;53.164;8.610;2023-07-31T01:04:03;2.05;;;1.30;;
74777;SDS011;63298;53.164;8.610;2023-07-31T01:09:04;2.95;;;1.10;;
74777;SDS011;63298;53.164;8.610;2023-07-31T01:11:48;3.60;;;1.27;;
74777;SDS011;63298;53.164;8.610;2023-07-31T01:14:17;2.72;;;1.02;;
74777;SDS011;63298;53.164;8.610;2023-07-31T01:16:43;3.20;;;1.00;;
74777;SDS011;63298;53.164;8.610;2023-07-31T01:19:08;1.60;;;0.80;;
74777;SDS011;63298;53.164;8.610;2023-07-31T01:26:47;2.58;;;1.58;;
74777;SDS011;63298;53.164;8.610;2023-07-31T01:31:53;1.30;;;1.00;;
74777;SDS011;63298;53.164;8.610;2023-07-31T01:34:20;1.80;;;1.00;;
74777;SDS011;63298;53.164;8.610;2023-07-31T01:36:47;1.65;;;0.88;;
74777;SDS011;63298;53.164;8.610;2023-07-31T01:39:12;2.40;;;1.27;;
74777;SDS011;63298;53.164;8.610;2023-07-31T01:41:38;2.72;;;1.17;;
74777;SDS011;63298;53.164;8.610;2023-07-31T01:44:08;1.35;;;1.15;;
74777;SDS011;63298;53.164;8.610;2023-07-31T01:46:37;1.02;;;1.02;;
74777;SDS011;63298;53.164;8.610;2023-07-31T01:49:02;1.65;;;1.30;;
74777;SDS011;63298;53.164;8.610;2023-07-31T01:51:27;1.65;;;0.90;;
74777;SDS011;63298;53.164;8.610;2023-07-31T01:53:53;1.60;;;1.10;;
74777;SDS011;63298;53.164;8.610;2023-07-31T01:56:18;1.55;;;0.70;;
74777;SDS011;63298;53.164;8.610;2023-07-31T01:58:43;1.30;;;0.90;;
74777;SDS011;63298;53.164;8.610;2023-07-31T02:01:09;1.65;;;1.00;;
74777;SDS011;63298;53.164;8.610;2023-07-31T02:03:34;2.15;;;1.10;;
74777;SDS011;63298;53.164;8.610;2023-07-31T02:05:59;2.70;;;1.10;;
74777;SDS011;63298;53.164;8.610;2023-07-31T02:08:25;1.42;;;0.90;;
74777;SDS011;63298;53.164;8.610;2023-07-31T02:10:51;0.90;;;0.90;;
74777;SDS011;63298;53.164;8.610;2023-07-31T02:13:16;1.00;;;0.93;;
74777;SDS011;63298;53.164;8.610;2023-07-31T02:15:42;2.28;;;1.20;;
74777;SDS011;63298;53.164;8.610;2023-07-31T02:18:07;2.95;;;1.25;;
74777;SDS011;63298;53.164;8.610;2023-07-31T02:20:35;0.90;;;0.90;;
74777;SDS011;63298;53.164;8.610;2023-07-31T02:23:01;1.73;;;1.20;;
74777;SDS011;63298;53.164;8.610;2023-07-31T02:25:26;1.73;;;1.17;;
74777;SDS011;63298;53.164;8.610;2023-07-31T02:27:51;1.77;;;0.90;;
74777;SDS011;63298;53.164;8.610;2023-07-31T02:30:17;4.18;;;0.90;;
74777;SDS011;63298;53.164;8.610;2023-07-31T02:32:42;0.82;;;0.80;;
74777;SDS011;63298;53.164;8.610;2023-07-31T02:35:09;1.17;;;1.10;;
74777;SDS011;63298;53.164;8.610;2023-07-31T02:37:34;2.92;;;1.00;;
74777;SDS011;63298;53.164;8.610;2023-07-31T02:40:00;3.13;;;1.42;;
74777;SDS011;63298;53.164;8.610;2023-07-31T02:42:26;1.10;;;0.95;;
74777;SDS011;63298;53.164;8.610;2023-07-31T02:44:51;1.27;;;0.90;;
74777;SDS011;63298;53.164;8.610;2023-07-31T02:47:17;1.95;;;1.10;;
74777;SDS011;63298;53.164;8.610;2023-07-31T02:49:43;1.00;;;1.00;;
74777;SDS011;63298;53.164;8.610;2023-07-31T02:52:08;1.23;;;1.13;;
74777;SDS011;63298;53.164;8.610;2023-07-31T02:54:33;0.88;;;0.88;;
74777;SDS011;63298;53.164;8.610;2023-07-31T02:56:59;1.42;;;0.95;;
74777;SDS011;63298;53.164;8.610;2023-07-31T02:59:24;2.05;;;0.90;;
74777;SDS011;63298;53.164;8.610;2023-07-31T03:01:50;1.05;;;0.95;;
74777;SDS011;63298;53.164;8.610;2023-07-31T03:04:15;3.13;;;1.00;;
74777;SDS011;63298;53.164;8.610;2023-07-31T03:06:41;0.95;;;0.90;;
74777;SDS011;63298;53.164;8.610;2023-07-31T03:09:06;0.95;;;0.90;;
74777;SDS011;63298;53.164;8.610;2023-07-31T03:11:32;1.80;;;1.00;;
74777;SDS011;63298;53.164;8.610;2023-07-31T03:13:57;1.50;;;1.17;;
74777;SDS011;63298;53.164;8.610;2023-07-31T03:16:22;1.85;;;1.20;;
74777;SDS011;63298;53.164;8.610;2023-07-31T03:18:48;1.00;;;0.90;;
74777;SDS011;63298;53.164;8.610;2023-07-31T03:21:14;1.00;;;1.00;;
74777;SDS011;63298;53.164;8.610;2023-07-31T03:23:39;2.15;;;1.10;;
74777;SDS011;63298;53.164;8.610;2023-07-31T03:26:06;1.35;;;0.98;;
74777;SDS011;63298;53.164;8.610;2023-07-31T03:28:32;1.52;;;1.00;;
74777;SDS011;63298;53.164;8.610;2023-07-31T03:30:58;1.80;;;1.00;;
74777;SDS011;63298;53.164;8.610;2023-07-31T03:33:24;3.67;;;1.38;;
74777;SDS011;63298;53.164;8.610;2023-07-31T03:35:49;1.45;;;1.27;;
74777;SDS011;63298;53.164;8.610;2023-07-31T03:38:14;1.13;;;1.13;;
74777;SDS011;63298;53.164;8.610;2023-07-31T03:40:40;1.38;;;0.98;;
74777;SDS011;63298;53.164;8.610;2023-07-31T03:43:05;1.27;;;1.17;;
74777;SDS011;63298;53.164;8.610;2023-07-31T03:45:31;1.85;;;1.20;;
74777;SDS011;63298;53.164;8.610;2023-07-31T03:47:56;1.30;;;1.20;;
74777;SDS011;63298;53.164;8.610;2023-07-31T03:50:21;2.47;;;1.10;;
74777;SDS011;63298;53.164;8.610;2023-07-31T03:52:47;2.00;;;1.08;;
74777;SDS011;63298;53.164;8.610;2023-07-31T03:55:12;1.25;;;1.15;;
74777;SDS011;63298;53.164;8.610;2023-07-31T03:57:37;1.10;;;1.10;;
74777;SDS011;63298;53.164;8.610;2023-07-31T04:00:03;2.33;;;1.02;;
74777;SDS011;63298;53.164;8.610;2023-07-31T04:02:29;1.30;;;1.20;;
74777;SDS011;63298;53.164;8.610;2023-07-31T04:04:54;5.18;;;1.20;;
74777;SDS011;63298;53.164;8.610;2023-07-31T04:07:19;3.78;;;1.38;;
74777;SDS011;63298;53.164;8.610;2023-07-31T04:09:45;1.83;;;1.15;;
74777;SDS011;63298;53.164;8.610;2023-07-31T04:12:10;1.60;;;1.25;;
74777;SDS011;63298;53.164;8.610;2023-07-31T04:14:35;1.23;;;1.13;;
74777;SDS011;63298;53.164;8.610;2023-07-31T04:17:01;0.90;;;0.90;;
74777;SDS011;63298;53.164;8.610;2023-07-31T04:19:26;1.17;;;1.00;;
74777;SDS011;63298;53.164;8.610;2023-07-31T04:21:51;0.90;;;0.90;;
74777;SDS011;63298;53.164;8.610;2023-07-31T04:24:17;1.45;;;1.00;;
74777;SDS011;63298;53.164;8.610;2023-07-31T04:26:42;1.50;;;1.38;;
74777;SDS011;63298;53.164;8.610;2023-07-31T04:29:07;1.00;;;1.00;;
74777;SDS011;63298;53.164;8.610;2023-07-31T04:31:33;1.10;;;1.00;;
74777;SDS011;63298;53.164;8.610;2023-07-31T04:33:59;1.00;;;1.00;;
74777;SDS011;63298;53.164;8.610;2023-07-31T04:36:24;1.40;;;1.30;;
74777;SDS011;63298;53.164;8.610;2023-07-31T04:38:49;1.10;;;1.02;;
74777;SDS011;63298;53.164;8.610;2023-07-31T04:41:15;1.20;;;1.00;;
74777;SDS011;63298;53.164;8.610;2023-07-31T04:43:40;1.00;;;1.00;;
74777;SDS011;63298;53.164;8.610;2023-07-31T04:46:05;1.42;;;0.88;;
74777;SDS011;63298;53.164;8.610;2023-07-31T04:48:31;1.15;;;1.00;;
74777;SDS011;63298;53.164;8.610;2023-07-31T04:50:56;0.95;;;0.95;;
74777;SDS011;63298;53.164;8.610;2023-07-31T04:53:21;1.00;;;0.90;;
74777;SDS011;63298;53.164;8.610;2023-07-31T04:55:47;0.90;;;0.80;;
74777;SDS011;63298;53.164;8.610;2023-07-31T04:58:12;0.73;;;0.73;;
74777;SDS011;63298;53.164;8.610;2023-07-31T05:00:37;0.90;;;0.90;;
74777;SDS011;63298;53.164;8.610;2023-07-31T05:03:03;3.20;;;0.98;;
74777;SDS011;63298;53.164;8.610;2023-07-31T05:05:28;0.60;;;0.60;;
74777;SDS011;63298;53.164;8.610;2023-07-31T05:07:53;1.23;;;1.00;;
74777;SDS011;63298;53.164;8.610;2023-07-31T05:10:18;0.60;;;0.60;;
74777;SDS011;63298;53.164;8.610;2023-07-31T05:12:44;0.82;;;0.82;;
74777;SDS011;63298;53.164;8.610;2023-07-31T05:15:09;0.80;;;0.80;;
74777;SDS011;63298;53.164;8.610;2023-07-31T05:17:35;0.80;;;0.80;;
74777;SDS011;63298;53.164;8.610;2023-07-31T05:20:00;0.60;;;0.60;;
74777;SDS011;63298;53.164;8.610;2023-07-31T05:22:25;0.52;;;0.52;;
74777;SDS011;63298;53.164;8.610;2023-07-31T05:24:51;0.60;;;0.60;;
74777;SDS011;63298;53.164;8.610;2023-07-31T05:27:16;0.80;;;0.80;;
74777;SDS011;63298;53.164;8.610;2023-07-31T05:29:41;2.15;;;0.85;;
74777;SDS011;63298;53.164;8.610;2023-07-31T05:32:07;1.70;;;0.70;;
74777;SDS011;63298;53.164;8.610;2023-07-31T05:34:32;0.65;;;0.65;;
74777;SDS011;63298;53.164;8.610;2023-07-31T05:36:58;0.60;;;0.60;;
74777;SDS011;63298;53.164;8.610;2023-07-31T05:39:23;0.83;;;0.60;;
74777;SDS011;63298;53.164;8.610;2023-07-31T05:41:48;0.45;;;0.45;;
74777;SDS011;63298;53.164;8.610;2023-07-31T05:44:13;0.65;;;0.65;;
74777;SDS011;63298;53.164;8.610;2023-07-31T05:46:39;0.43;;;0.43;;
74777;SDS011;63298;53.164;8.610;2023-07-31T05:49:04;0.80;;;0.80;;
74777;SDS011;63298;53.164;8.610;2023-07-31T05:51:29;1.40;;;0.77;;
74777;SDS011;63298;53.164;8.610;2023-07-31T05:53:55;0.85;;;0.70;;
74777;SDS011;63298;53.164;8.610;2023-07-31T05:56:20;2.70;;;0.63;;
74777;SDS011;63298;53.164;8.610;2023-07-31T05:58:45;0.50;;;0.50;;
74777;SDS011;63298;53.164;8.610;2023-07-31T06:01:11;0.57;;;0.57;;
74777;SDS011;63298;53.164;8.610;2023-07-31T06:03:36;1.85;;;0.50;;
74777;SDS011;63298;53.164;8.610;2023-07-31T06:06:01;1.17;;;0.60;;
74777;SDS011;63298;53.164;8.610;2023-07-31T06:08:27;0.65;;;0.65;;
74777;SDS011;63298;53.164;8.610;2023-07-31T06:10:53;0.75;;;0.75;;
74777;SDS011;63298;53.164;8.610;2023-07-31T06:13:18;0.70;;;0.70;;
74777;SDS011;63298;53.164;8.610;2023-07-31T06:15:43;1.00;;;1.00;;
74777;SDS011;63298;53.164;8.610;2023-07-31T06:18:08;0.95;;;0.95;;
74777;SDS011;63298;53.164;8.610;2023-07-31T06:20:34;0.73;;;0.73;;
74777;SDS011;63298;53.164;8.610;2023-07-31T06:22:59;1.33;;;1.15;;
74777;SDS011;63298;53.164;8.610;2023-07-31T06:25:25;1.20;;;1.00;;
74777;SDS011;63298;53.164;8.610;2023-07-31T06:27:50;0.80;;;0.80;;
74777;SDS011;63298;53.164;8.610;2023-07-31T06:30:15;1.00;;;1.00;;
74777;SDS011;63298;53.164;8.610;2023-07-31T06:32:41;0.77;;;0.77;;
74777;SDS011;63298;53.164;8.610;2023-07-31T06:35:06;0.90;;;0.90;;
74777;SDS011;63298;53.164;8.610;2023-07-31T06:37:32;1.08;;;1.08;;
74777;SDS011;63298;53.164;8.610;2023-07-31T06:39:57;0.70;;;0.63;;
74777;SDS011;63298;53.164;8.610;2023-07-31T06:42:22;0.60;;;0.60;;
74777;SDS011;63298;53.164;8.610;2023-07-31T06:44:48;0.70;;;0.70;;
74777;SDS011;63298;53.164;8.610;2023-07-31T06:47:13;1.50;;;0.80;;
74777;SDS011;63298;53.164;8.610;2023-07-31T06:49:38;0.60;;;0.60;;
74777;SDS011;63298;53.164;8.610;2023-07-31T06:52:04;0.70;;;0.70;;
74777;SDS011;63298;53.164;8.610;2023-07-31T06:54:29;0.60;;;0.60;;
74777;SDS011;63298;53.164;8.610;2023-07-31T06:56:55;0.82;;;0.82;;
74777;SDS011;63298;53.164;8.610;2023-07-31T06:59:20;0.40;;;0.40;;
74777;SDS011;63298;53.164;8.610;2023-07-31T07:01:45;1.23;;;0.82;;
74777;SDS011;63298;53.164;8.610;2023-07-31T07:04:11;0.70;;;0.70;;
74777;SDS011;63298;53.164;8.610;2023-07-31T07:06:36;0.70;;;0.70;;
74777;SDS011;63298;53.164;8.610;2023-07-31T07:09:02;0.73;;;0.73;;
74777;SDS011;63298;53.164;8.610;2023-07-31T07:11:27;1.55;;;0.85;;
74777;SDS011;63298;53.164;8.610;2023-07-31T07:13:53;0.90;;;0.80;;
74777;SDS011;63298;53.164;8.610;2023-07-31T07:16:18;0.60;;;0.60;;
74777;SDS011;63298;53.164;8.610;2023-07-31T07:18:43;0.57;;;0.57;;
74777;SDS011;63298;53.164;8.610;2023-07-31T07:21:09;0.73;;;0.73;;
74777;SDS011;63298;53.164;8.610;2023-07-31T07:23:34;0.70;;;0.70;;
74777;SDS011;63298;53.164;8.610;2023-07-31T07:25:59;0.57;;;0.57;;
74777;SDS011;63298;53.164;8.610;2023-07-31T07:28:24;0.70;;;0.70;;
74777;SDS011;63298;53.164;8.610;2023-07-31T07:30:53;0.70;;;0.70;;
74777;SDS011;63298;53.164;8.610;2023-07-31T07:33:18;0.60;;;0.60;;
74777;SDS011;63298;53.164;8.610;2023-07-31T07:35:44;0.60;;;0.60;;
74777;SDS011;63298;53.164;8.610;2023-07-31T07:38:10;0.60;;;0.60;;
74777;SDS011;63298;53.164;8.610;2023-07-31T07:40:39;0.63;;;0.60;;
74777;SDS011;63298;53.164;8.610;2023-07-31T07:43:05;1.67;;;0.80;;
74777;SDS011;63298;53.164;8.610;2023-07-31T07:45:30;1.00;;;1.00;;
74777;SDS011;63298;53.164;8.610;2023-07-31T07:47:55;3.28;;;1.05;;
74777;SDS011;63298;53.164;8.610;2023-07-31T07:50:21;1.00;;;0.90;;
74777;SDS011;63298;53.164;8.610;2023-07-31T07:52:46;1.45;;;1.13;;
74777;SDS011;63298;53.164;8.610;2023-07-31T07:55:11;3.35;;;1.80;;
74777;SDS011;63298;53.164;8.610;2023-07-31T07:57:37;3.78;;;1.60;;
74777;SDS011;63298;53.164;8.610;2023-07-31T08:00:02;5.25;;;2.08;;
74777;SDS011;63298;53.164;8.610;2023-07-31T08:02:28;4.80;;;2.80;;
74777;SDS011;63298;53.164;8.610;2023-07-31T08:04:53;7.65;;;3.22;;
74777;SDS011;63298;53.164;8.610;2023-07-31T08:07:19;6.10;;;2.65;;
74777;SDS011;63298;53.164;8.610;2023-07-31T08:09:44;7.07;;;3.13;;
74777;SDS011;63298;53.164;8.610;2023-07-31T08:12:10;8.65;;;2.85;;
74777;SDS011;63298;53.164;8.610;2023-07-31T08:14:35;12.45;;;3.17;;
74777;SDS011;63298;53.164;8.610;2023-07-31T08:17:01;8.88;;;3.33;;
74777;SDS011;63298;53.164;8.610;2023-07-31T08:19:27;12.55;;;3.95;;
74777;SDS011;63298;53.164;8.610;2023-07-31T08:21:52;12.90;;;4.00;;
74777;SDS011;63298;53.164;8.610;2023-07-31T08:24:18;6.72;;;3.40;;
74777;SDS011;63298;53.164;8.610;2023-07-31T08:26:43;13.02;;;4.88;;
74777;SDS011;63298;53.164;8.610;2023-07-31T08:29:08;10.40;;;4.28;;
74777;SDS011;63298;53.164;8.610;2023-07-31T08:31:34;11.25;;;4.43;;
74777;SDS011;63298;53.164;8.610;2023-07-31T08:33:59;14.35;;;4.40;;
74777;SDS011;63298;53.164;8.610;2023-07-31T08:36:24;12.98;;;4.53;;
74777;SDS011;63298;53.164;8.610;2023-07-31T08:38:50;11.02;;;4.72;;
74777;SDS011;63298;53.164;8.610;2023-07-31T08:41:15;10.52;;;4.50;;
74777;SDS011;63298;53.164;8.610;2023-07-31T08:43:41;11.18;;;4.55;;
74777;SDS011;63298;53.164;8.610;2023-07-31T08:46:07;12.88;;;4.75;;
74777;SDS011;63298;53.164;8.610;2023-07-31T08:48:33;13.23;;;4.75;;
74777;SDS011;63298;53.164;8.610;2023-07-31T08:51:00;11.70;;;4.78;;
74777;SDS011;63298;53.164;8.610;2023-07-31T08:53:25;18.90;;;5.40;;
74777;SDS011;63298;53.164;8.610;2023-07-31T08:55:52;12.25;;;4.40;;
74777;SDS011;63298;53.164;8.610;2023-07-31T08:58:18;15.13;;;5.45;;
74777;SDS011;63298;53.164;8.610;2023-07-31T09:00:45;13.38;;;5.50;;
74777;SDS011;63298;53.164;8.610;2023-07-31T09:03:15;11.27;;;4.72;;
74777;SDS011;63298;53.164;8.610;2023-07-31T09:05:43;14.82;;;5.05;;
74777;SDS011;63298;53.164;8.610;2023-07-31T09:08:10;12.43;;;4.60;;
74777;SDS011;63298;53.164;8.610;2023-07-31T09:10:40;15.07;;;5.10;;
74777;SDS011;63298;53.164;8.610;2023-07-31T09:13:10;10.32;;;4.50;;
74777;SDS011;63298;53.164;8.610;2023-07-31T09:15:35;9.02;;;4.25;;
74777;SDS011;63298;53.164;8.610;2023-07-31T09:18:02;11.38;;;3.97;;
74777;SDS011;63298;53.164;8.610;2023-07-31T09:20:28;8.25;;;3.80;;
74777;SDS011;63298;53.164;8.610;2023-07-31T09:22:54;9.30;;;3.47;;
74777;SDS011;63298;53.164;8.610;2023-07-31T09:25:22;7.35;;;3.13;;
74777;SDS011;63298;53.164;8.610;2023-07-31T09:27:50;9.20;;;3.45;;
74777;SDS011;63298;53.164;8.610;2023-07-31T09:30:21;5.88;;;2.85;;
74777;SDS011;63298;53.164;8.610;2023-07-31T09:32:48;7.03;;;3.33;;
74777;SDS011;63298;53.164;8.610;2023-07-31T09:37:50;8.30;;;3.60;;
74777;SDS011;63298;53.164;8.610;2023-07-31T09:40:31;8.40;;;3.30;;
74777;SDS011;63298;53.164;8.610;2023-07-31T09:43:04;5.80;;;3.05;;
74777;SDS011;63298;53.164;8.610;2023-07-31T09:45:33;9.27;;;3.45;;
74777;SDS011;63298;53.164;8.610;2023-07-31T09:48:00;5.20;;;2.90;;
74777;SDS011;63298;53.164;8.610;2023-07-31T09:50:26;5.25;;;2.60;;
74777;SDS011;63298;53.164;8.610;2023-07-31T09:52:51;7.38;;;3.33;;
74777;SDS011;63298;53.164;8.610;2023-07-31T09:55:17;4.43;;;2.42;;
74777;SDS011;63298;53.164;8.610;2023-07-31T09:57:47;5.65;;;2.40;;
74777;SDS011;63298;53.164;8.610;2023-07-31T10:03:42;3.67;;;2.00;;
74777;SDS011;63298;53.164;8.610;2023-07-31T10:06:09;4.82;;;2.00;;
74777;SDS011;63298;53.164;8.610;2023-07-31T10:08:35;4.10;;;1.77;;
74777;SDS011;63298;53.164;8.610;2023-07-31T10:11:02;4.18;;;1.70;;
74777;SDS011;63298;53.164;8.610;2023-07-31T10:13:29;8.43;;;1.88;;
74777;SDS011;63298;53.164;8.610;2023-07-31T10:15:57;4.30;;;1.48;;
74777;SDS011;63298;53.164;8.610;2023-07-31T10:18:24;5.28;;;2.05;;
74777;SDS011;63298;53.164;8.610;2023-07-31T10:20:50;1.60;;;1.50;;
74777;SDS011;63298;53.164;8.610;2023-07-31T10:23:16;5.18;;;1.40;;
74777;SDS011;63298;53.164;8.610;2023-07-31T10:25:42;3.67;;;1.70;;
74777;SDS011;63298;53.164;8.610;2023-07-31T10:28:08;3.80;;;1.33;;
74777;SDS011;63298;53.164;8.610;2023-07-31T10:30:36;5.65;;;1.60;;
74777;SDS011;63298;53.164;8.610;2023-07-31T10:33:03;3.10;;;1.30;;
74777;SDS011;63298;53.164;8.610;2023-07-31T10:35:29;1.20;;;1.08;;
74777;SDS011;63298;53.164;8.610;2023-07-31T10:37:54;2.25;;;1.08;;
74777;SDS011;63298;53.164;8.610;2023-07-31T10:40:23;1.55;;;1.13;;
74777;SDS011;63298;53.164;8.610;2023-07-31T10:42:55;1.38;;;1.00;;
74777;SDS011;63298;53.164;8.610;2023-07-31T10:45:38;2.13;;;1.20;;
74777;SDS011;63298;53.164;8.610;2023-07-31T10:50:47;4.93;;;1.00;;
74777;SDS011;63298;53.164;8.610;2023-07-31T10:55:49;2.00;;;0.93;;
74777;SDS011;63298;53.164;8.610;2023-07-31T10:58:15;0.88;;;0.88;;
74777;SDS011;63298;53.164;8.610;2023-07-31T11:00:44;0.98;;;0.90;;
74777;SDS011;63298;53.164;8.610;2023-07-31T11:03:16;2.40;;;1.00;;
74777;SDS011;63298;53.164;8.610;2023-07-31T11:08:15;0.73;;;0.70;;
74777;SDS011;63298;53.164;8.610;2023-07-31T11:10:41;1.45;;;0.70;;
74777;SDS011;63298;53.164;8.610;2023-07-31T11:13:10;1.20;;;0.60;;
74777;SDS011;63298;53.164;8.610;2023-07-31T11:15:36;1.70;;;0.68;;
74777;SDS011;63298;53.164;8.610;2023-07-31T11:18:02;1.08;;;0.63;;
74777;SDS011;63298;53.164;8.610;2023-07-31T11:20:29;0.63;;;0.63;;
74777;SDS011;63298;53.164;8.610;2023-07-31T11:22:57;0.40;;;0.40;;
74777;SDS011;63298;53.164;8.610;2023-07-31T11:25:26;0.40;;;0.40;;
74777;SDS011;63298;53.164;8.610;2023-07-31T11:27:54;0.50;;;0.50;;
74777;SDS011;63298;53.164;8.610;2023-07-31T11:30:19;1.27;;;0.60;;
74777;SDS011;63298;53.164;8.610;2023-07-31T11:32:45;0.50;;;0.50;;
74777;SDS011;63298;53.164;8.610;2023-07-31T11:35:13;0.40;;;0.40;;
74777;SDS011;63298;53.164;8.610;2023-07-31T11:37:39;0.60;;;0.60;;
74777;SDS011;63298;53.164;8.610;2023-07-31T11:40:05;0.40;;;0.40;;
74777;SDS011;63298;53.164;8.610;2023-07-31T11:42:31;0.80;;;0.30;;
74777;SDS011;63298;53.164;8.610;2023-07-31T11:44:57;0.80;;;0.40;;
74777;SDS011;63298;53.164;8.610;2023-07-31T11:47:22;0.40;;;0.40;;
74777;SDS011;63298;53.164;8.610;2023-07-31T11:49:47;0.30;;;0.30;;
74777;SDS011;63298;53.164;8.610;2023-07-31T11:52:14;2.00;;;0.55;;
74777;SDS011;63298;53.164;8.610;2023-07-31T11:54:40;0.30;;;0.30;;
74777;SDS011;63298;53.164;8.610;2023-07-31T11:57:06;0.20;;;0.20;;
74777;SDS011;63298;53.164;8.610;2023-07-31T11:59:32;0.20;;;0.20;;
74777;SDS011;63298;53.164;8.610;2023-07-31T12:01:58;0.20;;;0.20;;
74777;SDS011;63298;53.164;8.610;2023-07-31T12:04:23;1.13;;;0.28;;
74777;SDS011;63298;53.164;8.610;2023-07-31T12:06:49;0.60;;;0.50;;
74777;SDS011;63298;53.164;8.610;2023-07-31T12:09:18;0.20;;;0.20;;
74777;SDS011;63298;53.164;8.610;2023-07-31T12:11:43;0.30;;;0.30;;
74777;SDS011;63298;53.164;8.610;2023-07-31T12:17:06;0.32;;;0.32;;
74777;SDS011;63298;53.164;8.610;2023-07-31T12:19:33;0.32;;;0.32;;
74777;SDS011;63298;53.164;8.610;2023-07-31T12:21:59;0.40;;;0.40;;
74777;SDS011;63298;53.164;8.610;2023-07-31T12:24:25;1.27;;;0.55;;
74777;SDS011;63298;53.164;8.610;2023-07-31T12:26:51;0.30;;;0.30;;
74777;SDS011;63298;53.164;8.610;2023-07-31T12:29:17;0.40;;;0.40;;
74777;SDS011;63298;53.164;8.610;2023-07-31T12:31:42;0.40;;;0.40;;
74777;SDS011;63298;53.164;8.610;2023-07-31T12:37:07;0.50;;;0.50;;
74777;SDS011;63298;53.164;8.610;2023-07-31T12:39:33;0.35;;;0.32;;
74777;SDS011;63298;53.164;8.610;2023-07-31T12:41:58;0.50;;;0.50;;
74777;SDS011;63298;53.164;8.610;2023-07-31T12:44:26;0.47;;;0.47;;
74777;SDS011;63298;53.164;8.610;2023-07-31T12:46:52;0.63;;;0.63;;
74777;SDS011;63298;53.164;8.610;2023-07-31T12:49:18;0.50;;;0.50;;
74777;SDS011;63298;53.164;8.610;2023-07-31T12:51:43;0.52;;;0.52;;
74777;SDS011;63298;53.164;8.610;2023-07-31T12:54:09;0.60;;;0.60;;
74777;SDS011;63298;53.164;8.610;2023-07-31T12:56:34;1.30;;;0.73;;
74777;SDS011;63298;53.164;8.610;2023-07-31T12:58:59;0.70;;;0.70;;
74777;SDS011;63298;53.164;8.610;2023-07-31T13:01:25;0.95;;;0.65;;
74777;SDS011;63298;53.164;8.610;2023-07-31T13:03:50;0.40;;;0.40;;
74777;SDS011;63298;53.164;8.610;2023-07-31T13:06:15;0.60;;;0.60;;
74777;SDS011;63298;53.164;8.610;2023-07-31T13:08:40;2.70;;;0.70;;
74777;SDS011;63298;53.164;8.610;2023-07-31T13:11:06;2.00;;;0.70;;
74777;SDS011;63298;53.164;8.610;2023-07-31T13:13:31;0.70;;;0.70;;
74777;SDS011;63298;53.164;8.610;2023-07-31T13:15:57;0.88;;;0.60;;
74777;SDS011;63298;53.164;8.610;2023-07-31T13:18:22;0.77;;;0.70;;
74777;SDS011;63298;53.164;8.610;2023-07-31T13:20:48;0.70;;;0.70;;
74777;SDS011;63298;53.164;8.610;2023-07-31T13:23:13;1.83;;;0.70;;
74777;SDS011;63298;53.164;8.610;2023-07-31T13:25:38;0.80;;;0.80;;
74777;SDS011;63298;53.164;8.610;2023-07-31T13:28:04;0.73;;;0.73;;
74777;SDS011;63298;53.164;8.610;2023-07-31T13:30:29;0.90;;;0.90;;
74777;SDS011;63298;53.164;8.610;2023-07-31T13:32:55;1.00;;;1.00;;
74777;SDS011;63298;53.164;8.610;2023-07-31T13:35:20;2.65;;;0.90;;
74777;SDS011;63298;53.164;8.610;2023-07-31T13:37:45;2.25;;;1.00;;
74777;SDS011;63298;53.164;8.610;2023-07-31T13:40:11;1.20;;;1.10;;
74777;SDS011;63298;53.164;8.610;2023-07-31T13:42:36;1.15;;;1.15;;
74777;SDS011;63298;53.164;8.610;2023-07-31T13:45:02;1.08;;;1.08;;
74777;SDS011;63298;53.164;8.610;2023-07-31T13:47:27;1.00;;;1.00;;
74777;SDS011;63298;53.164;8.610;2023-07-31T13:50:02;0.90;;;0.90;;
74777;SDS011;63298;53.164;8.610;2023-07-31T13:52:39;1.08;;;1.08;;
74777;SDS011;63298;53.164;8.610;2023-07-31T13:55:05;1.05;;;1.00;;
74777;SDS011;63298;53.164;8.610;2023-07-31T13:57:30;0.93;;;0.93;;
74777;SDS011;63298;53.164;8.610;2023-07-31T13:59:56;1.67;;;1.58;;
74777;SDS011;63298;53.164;8.610;2023-07-31T14:02:21;1.02;;;1.02;;
74777;SDS011;63298;53.164;8.610;2023-07-31T14:04:47;1.60;;;1.50;;
74777;SDS011;63298;53.164;8.610;2023-07-31T14:07:12;4.35;;;1.30;;
74777;SDS011;63298;53.164;8.610;2023-07-31T14:09:37;1.63;;;1.50;;
74777;SDS011;63298;53.164;8.610;2023-07-31T14:12:03;2.08;;;1.60;;
74777;SDS011;63298;53.164;8.610;2023-07-31T14:14:29;2.33;;;1.70;;
74777;SDS011;63298;53.164;8.610;2023-07-31T14:16:54;2.25;;;1.70;;
74777;SDS011;63298;53.164;8.610;2023-07-31T14:19:20;2.00;;;1.80;;
74777;SDS011;63298;53.164;8.610;2023-07-31T14:21:45;2.17;;;2.00;;
74777;SDS011;63298;53.164;8.610;2023-07-31T14:24:10;2.20;;;2.10;;
74777;SDS011;63298;53.164;8.610;2023-07-31T14:26:36;2.83;;;1.95;;
74777;SDS011;63298;53.164;8.610;2023-07-31T14:29:01;2.10;;;2.00;;
74777;SDS011;63298;53.164;8.610;2023-07-31T14:31:26;2.40;;;2.20;;
74777;SDS011;63298;53.164;8.610;2023-07-31T14:33:52;3.35;;;2.53;;
74777;SDS011;63298;53.164;8.610;2023-07-31T14:36:17;2.70;;;2.50;;
74777;SDS011;63298;53.164;8.610;2023-07-31T14:38:42;4.43;;;2.40;;
74777;SDS011;63298;53.164;8.610;2023-07-31T14:41:08;3.10;;;2.50;;
74777;SDS011;63298;53.164;8.610;2023-07-31T14:43:33;2.60;;;2.40;;
74777;SDS011;63298;53.164;8.610;2023-07-31T14:45:59;2.75;;;2.40;;
74777;SDS011;63298;53.164;8.610;2023-07-31T14:48:24;3.92;;;2.95;;
74777;SDS011;63298;53.164;8.610;2023-07-31T14:50:50;3.63;;;3.15;;
74777;SDS011;63298;53.164;8.610;2023-07-31T14:53:15;3.40;;;3.13;;
74777;SDS011;63298;53.164;8.610;2023-07-31T14:55:41;3.67;;;3.03;;
74777;SDS011;63298;53.164;8.610;2023-07-31T14:58:06;2.47;;;2.33;;
74777;SDS011;63298;53.164;8.610;2023-07-31T15:00:32;2.60;;;2.40;;
74777;SDS011;63298;53.164;8.610;2023-07-31T15:02:57;2.33;;;2.03;;
74777;SDS011;63298;53.164;8.610;2023-07-31T15:05:22;2.60;;;2.40;;
74777;SDS011;63298;53.164;8.610;2023-07-31T15:07:48;1.92;;;1.77;;
74777;SDS011;63298;53.164;8.610;2023-07-31T15:10:13;2.33;;;1.98;;